Hamois, Belgium
Current Conditions -  °F | °C
As of 9:55 PM on Saturday 20 Dec 2014 (Local Time) from EBFS Reporting Station
Few Clouds Few Clouds  
Wind Chill: 34°   Ceiling: Unl
Heat Index: 41°   Visibility: 6mi
Dew Point: 36°   Wind: 13mph
Humidity: 81%   Direction: 280°W
Pressure: 30.39"   Gusts: NA
Location:  50.34°N, 5.16°E
Report Text: EBFS 202055Z AUTO 28011KT 9999 FEW023/// 05/02 Q1029 BLU
Loading
Personal Weather Stations






























Interactive Weather Map New forecast layout! Learn more

10-Day Weather Forecast

Advertisements
Track Severe Weather on mobile